sensor_id;sensor_type;location;lat;lon;timestamp;P1;durP1;ratioP1;P2;durP2;ratioP2
20982;SDS011;10650;51.528;6.748;2022-09-24T00:01:28;30.40;;;27.20;;
20982;SDS011;10650;51.528;6.748;2022-09-24T00:03:58;29.83;;;25.92;;
20982;SDS011;10650;51.528;6.748;2022-09-24T00:06:28;33.28;;;29.73;;
20982;SDS011;10650;51.528;6.748;2022-09-24T00:09:01;32.88;;;28.27;;
20982;SDS011;10650;51.528;6.748;2022-09-24T00:11:29;35.35;;;31.58;;
20982;SDS011;10650;51.528;6.748;2022-09-24T00:13:57;30.60;;;27.27;;
20982;SDS011;10650;51.528;6.748;2022-09-24T00:16:27;35.67;;;31.25;;
20982;SDS011;10650;51.528;6.748;2022-09-24T00:18:59;34.55;;;28.52;;
20982;SDS011;10650;51.528;6.748;2022-09-24T00:21:29;35.03;;;30.25;;
20982;SDS011;10650;51.528;6.748;2022-09-24T00:24:00;34.75;;;29.25;;
20982;SDS011;10650;51.528;6.748;2022-09-24T00:26:31;30.67;;;27.38;;
20982;SDS011;10650;51.528;6.748;2022-09-24T00:29:19;37.58;;;31.85;;
20982;SDS011;10650;51.528;6.748;2022-09-24T00:31:48;40.38;;;33.08;;
20982;SDS011;10650;51.528;6.748;2022-09-24T00:34:17;37.30;;;32.15;;
20982;SDS011;10650;51.528;6.748;2022-09-24T00:36:45;31.52;;;28.17;;
20982;SDS011;10650;51.528;6.748;2022-09-24T00:39:15;36.10;;;32.20;;
20982;SDS011;10650;51.528;6.748;2022-09-24T00:41:43;38.83;;;34.25;;
20982;SDS011;10650;51.528;6.748;2022-09-24T00:47:30;37.83;;;29.88;;
20982;SDS011;10650;51.528;6.748;2022-09-24T00:50:09;31.75;;;28.27;;
20982;SDS011;10650;51.528;6.748;2022-09-24T00:52:43;35.22;;;29.05;;
20982;SDS011;10650;51.528;6.748;2022-09-24T00:57:45;39.95;;;33.22;;
20982;SDS011;10650;51.528;6.748;2022-09-24T01:00:15;42.67;;;35.65;;
20982;SDS011;10650;51.528;6.748;2022-09-24T01:02:43;32.30;;;28.85;;
20982;SDS011;10650;51.528;6.748;2022-09-24T01:05:15;29.70;;;26.50;;
20982;SDS011;10650;51.528;6.748;2022-09-24T01:07:43;32.42;;;28.02;;
20982;SDS011;10650;51.528;6.748;2022-09-24T01:10:13;39.45;;;33.83;;
20982;SDS011;10650;51.528;6.748;2022-09-24T01:13:04;32.13;;;27.85;;
20982;SDS011;10650;51.528;6.748;2022-09-24T01:15:41;35.42;;;29.73;;
20982;SDS011;10650;51.528;6.748;2022-09-24T01:18:16;33.42;;;29.73;;
20982;SDS011;10650;51.528;6.748;2022-09-24T01:20:58;36.70;;;31.63;;
20982;SDS011;10650;51.528;6.748;2022-09-24T01:23:44;40.50;;;33.72;;
20982;SDS011;10650;51.528;6.748;2022-09-24T01:26:28;31.77;;;27.83;;
20982;SDS011;10650;51.528;6.748;2022-09-24T01:32:08;38.05;;;33.92;;
20982;SDS011;10650;51.528;6.748;2022-09-24T01:34:45;40.53;;;33.95;;
20982;SDS011;10650;51.528;6.748;2022-09-24T01:37:16;36.08;;;30.27;;
20982;SDS011;10650;51.528;6.748;2022-09-24T01:39:47;37.03;;;31.73;;
20982;SDS011;10650;51.528;6.748;2022-09-24T01:42:17;42.85;;;34.95;;
20982;SDS011;10650;51.528;6.748;2022-09-24T01:44:49;35.85;;;31.42;;
20982;SDS011;10650;51.528;6.748;2022-09-24T01:47:19;42.50;;;34.33;;
20982;SDS011;10650;51.528;6.748;2022-09-24T01:49:50;38.22;;;31.52;;
20982;SDS011;10650;51.528;6.748;2022-09-24T01:52:21;41.25;;;35.70;;
20982;SDS011;10650;51.528;6.748;2022-09-24T01:54:53;41.75;;;34.95;;
20982;SDS011;10650;51.528;6.748;2022-09-24T01:57:23;44.38;;;35.83;;
20982;SDS011;10650;51.528;6.748;2022-09-24T01:59:58;39.53;;;34.90;;
20982;SDS011;10650;51.528;6.748;2022-09-24T02:02:32;41.03;;;34.45;;
20982;SDS011;10650;51.528;6.748;2022-09-24T02:05:06;41.65;;;35.08;;
20982;SDS011;10650;51.528;6.748;2022-09-24T02:07:41;34.45;;;30.40;;
20982;SDS011;10650;51.528;6.748;2022-09-24T02:10:16;35.10;;;31.15;;
20982;SDS011;10650;51.528;6.748;2022-09-24T02:12:47;38.30;;;32.88;;
20982;SDS011;10650;51.528;6.748;2022-09-24T02:15:20;39.17;;;33.90;;
20982;SDS011;10650;51.528;6.748;2022-09-24T02:17:58;37.22;;;31.70;;
20982;SDS011;10650;51.528;6.748;2022-09-24T02:20:30;38.70;;;33.17;;
20982;SDS011;10650;51.528;6.748;2022-09-24T02:23:00;38.47;;;31.98;;
20982;SDS011;10650;51.528;6.748;2022-09-24T02:25:32;39.13;;;32.40;;
20982;SDS011;10650;51.528;6.748;2022-09-24T02:28:04;31.75;;;28.20;;
20982;SDS011;10650;51.528;6.748;2022-09-24T02:30:35;38.53;;;32.47;;
20982;SDS011;10650;51.528;6.748;2022-09-24T02:33:06;32.30;;;28.10;;
20982;SDS011;10650;51.528;6.748;2022-09-24T02:35:56;29.05;;;24.98;;
20982;SDS011;10650;51.528;6.748;2022-09-24T02:38:24;30.63;;;26.08;;
20982;SDS011;10650;51.528;6.748;2022-09-24T02:40:51;36.55;;;29.80;;
20982;SDS011;10650;51.528;6.748;2022-09-24T02:43:20;29.42;;;25.50;;
20982;SDS011;10650;51.528;6.748;2022-09-24T02:45:49;27.88;;;23.85;;
20982;SDS011;10650;51.528;6.748;2022-09-24T02:48:17;26.75;;;23.65;;
20982;SDS011;10650;51.528;6.748;2022-09-24T02:50:44;33.13;;;25.58;;
20982;SDS011;10650;51.528;6.748;2022-09-24T02:53:12;26.25;;;23.35;;
20982;SDS011;10650;51.528;6.748;2022-09-24T02:55:40;27.48;;;23.60;;
20982;SDS011;10650;51.528;6.748;2022-09-24T02:58:08;31.00;;;25.40;;
20982;SDS011;10650;51.528;6.748;2022-09-24T03:00:35;27.33;;;23.27;;
20982;SDS011;10650;51.528;6.748;2022-09-24T03:03:05;31.77;;;26.02;;
20982;SDS011;10650;51.528;6.748;2022-09-24T03:05:33;28.70;;;22.25;;
20982;SDS011;10650;51.528;6.748;2022-09-24T03:08:00;32.58;;;26.58;;
20982;SDS011;10650;51.528;6.748;2022-09-24T03:10:28;31.05;;;26.67;;
20982;SDS011;10650;51.528;6.748;2022-09-24T03:12:56;29.30;;;24.30;;
20982;SDS011;10650;51.528;6.748;2022-09-24T03:15:24;29.13;;;24.07;;
20982;SDS011;10650;51.528;6.748;2022-09-24T03:17:51;31.05;;;26.23;;
20982;SDS011;10650;51.528;6.748;2022-09-24T03:20:20;31.00;;;24.20;;
20982;SDS011;10650;51.528;6.748;2022-09-24T03:22:49;29.40;;;23.10;;
20982;SDS011;10650;51.528;6.748;2022-09-24T03:25:17;26.95;;;22.70;;
20982;SDS011;10650;51.528;6.748;2022-09-24T03:27:45;29.02;;;23.75;;
20982;SDS011;10650;51.528;6.748;2022-09-24T03:30:13;30.48;;;26.20;;
20982;SDS011;10650;51.528;6.748;2022-09-24T03:32:58;36.78;;;28.90;;
20982;SDS011;10650;51.528;6.748;2022-09-24T03:35:27;26.65;;;23.08;;
20982;SDS011;10650;51.528;6.748;2022-09-24T03:37:55;31.45;;;26.88;;
20982;SDS011;10650;51.528;6.748;2022-09-24T03:40:23;35.08;;;27.35;;
20982;SDS011;10650;51.528;6.748;2022-09-24T03:42:51;35.10;;;27.77;;
20982;SDS011;10650;51.528;6.748;2022-09-24T03:45:18;36.60;;;29.30;;
20982;SDS011;10650;51.528;6.748;2022-09-24T03:47:46;33.97;;;28.27;;
20982;SDS011;10650;51.528;6.748;2022-09-24T03:50:13;29.13;;;24.42;;
20982;SDS011;10650;51.528;6.748;2022-09-24T03:52:43;36.08;;;28.85;;
20982;SDS011;10650;51.528;6.748;2022-09-24T03:55:12;28.42;;;24.65;;
20982;SDS011;10650;51.528;6.748;2022-09-24T03:57:40;28.45;;;23.95;;
20982;SDS011;10650;51.528;6.748;2022-09-24T04:00:08;28.38;;;24.05;;
20982;SDS011;10650;51.528;6.748;2022-09-24T04:02:37;35.72;;;27.80;;
20982;SDS011;10650;51.528;6.748;2022-09-24T04:05:06;31.02;;;25.90;;
20982;SDS011;10650;51.528;6.748;2022-09-24T04:07:34;35.40;;;29.00;;
20982;SDS011;10650;51.528;6.748;2022-09-24T04:10:03;33.13;;;27.15;;
20982;SDS011;10650;51.528;6.748;2022-09-24T04:12:31;34.55;;;26.48;;
20982;SDS011;10650;51.528;6.748;2022-09-24T04:14:58;28.23;;;23.75;;
20982;SDS011;10650;51.528;6.748;2022-09-24T04:17:27;28.25;;;23.20;;
20982;SDS011;10650;51.528;6.748;2022-09-24T04:19:56;27.65;;;24.00;;
20982;SDS011;10650;51.528;6.748;2022-09-24T04:22:24;30.75;;;25.88;;
20982;SDS011;10650;51.528;6.748;2022-09-24T04:24:53;29.98;;;25.33;;
20982;SDS011;10650;51.528;6.748;2022-09-24T04:27:22;29.63;;;23.30;;
20982;SDS011;10650;51.528;6.748;2022-09-24T04:29:50;29.70;;;24.50;;
20982;SDS011;10650;51.528;6.748;2022-09-24T04:32:19;31.88;;;26.38;;
20982;SDS011;10650;51.528;6.748;2022-09-24T04:34:47;30.98;;;25.45;;
20982;SDS011;10650;51.528;6.748;2022-09-24T04:37:15;31.73;;;26.25;;
20982;SDS011;10650;51.528;6.748;2022-09-24T04:39:43;31.75;;;26.55;;
20982;SDS011;10650;51.528;6.748;2022-09-24T04:42:14;33.85;;;26.55;;
20982;SDS011;10650;51.528;6.748;2022-09-24T04:47:13;30.42;;;24.88;;
20982;SDS011;10650;51.528;6.748;2022-09-24T04:49:41;31.20;;;25.90;;
20982;SDS011;10650;51.528;6.748;2022-09-24T04:52:10;32.58;;;25.48;;
20982;SDS011;10650;51.528;6.748;2022-09-24T04:54:40;29.63;;;24.80;;
20982;SDS011;10650;51.528;6.748;2022-09-24T04:57:12;28.15;;;23.55;;
20982;SDS011;10650;51.528;6.748;2022-09-24T04:59:40;28.45;;;23.63;;
20982;SDS011;10650;51.528;6.748;2022-09-24T05:02:09;29.48;;;24.15;;
20982;SDS011;10650;51.528;6.748;2022-09-24T05:04:37;27.08;;;22.60;;
20982;SDS011;10650;51.528;6.748;2022-09-24T05:07:05;28.48;;;23.83;;
20982;SDS011;10650;51.528;6.748;2022-09-24T05:09:32;29.10;;;23.15;;
20982;SDS011;10650;51.528;6.748;2022-09-24T05:12:00;25.55;;;21.17;;
20982;SDS011;10650;51.528;6.748;2022-09-24T05:14:28;26.70;;;22.80;;
20982;SDS011;10650;51.528;6.748;2022-09-24T05:16:56;30.40;;;23.83;;
20982;SDS011;10650;51.528;6.748;2022-09-24T05:19:25;29.00;;;23.00;;
20982;SDS011;10650;51.528;6.748;2022-09-24T05:21:53;26.10;;;22.27;;
20982;SDS011;10650;51.528;6.748;2022-09-24T05:24:20;24.15;;;20.08;;
20982;SDS011;10650;51.528;6.748;2022-09-24T05:26:48;25.35;;;21.42;;
20982;SDS011;10650;51.528;6.748;2022-09-24T05:29:33;28.27;;;23.17;;
20982;SDS011;10650;51.528;6.748;2022-09-24T05:32:02;29.27;;;23.25;;
20982;SDS011;10650;51.528;6.748;2022-09-24T05:34:33;27.48;;;22.48;;
20982;SDS011;10650;51.528;6.748;2022-09-24T05:37:01;24.27;;;20.05;;
20982;SDS011;10650;51.528;6.748;2022-09-24T05:39:29;25.52;;;20.27;;
20982;SDS011;10650;51.528;6.748;2022-09-24T05:41:59;26.63;;;21.88;;
20982;SDS011;10650;51.528;6.748;2022-09-24T05:44:28;25.13;;;20.45;;
20982;SDS011;10650;51.528;6.748;2022-09-24T05:46:56;23.33;;;19.58;;
20982;SDS011;10650;51.528;6.748;2022-09-24T05:49:24;28.50;;;22.20;;
20982;SDS011;10650;51.528;6.748;2022-09-24T05:51:53;25.13;;;20.60;;
20982;SDS011;10650;51.528;6.748;2022-09-24T05:54:22;22.90;;;19.50;;
20982;SDS011;10650;51.528;6.748;2022-09-24T05:56:49;28.60;;;22.40;;
20982;SDS011;10650;51.528;6.748;2022-09-24T05:59:17;26.38;;;22.35;;
20982;SDS011;10650;51.528;6.748;2022-09-24T06:01:45;29.67;;;23.25;;
20982;SDS011;10650;51.528;6.748;2022-09-24T06:04:14;25.85;;;20.23;;
20982;SDS011;10650;51.528;6.748;2022-09-24T06:06:42;22.17;;;18.75;;
20982;SDS011;10650;51.528;6.748;2022-09-24T06:09:11;29.90;;;23.10;;
20982;SDS011;10650;51.528;6.748;2022-09-24T06:11:39;30.88;;;22.45;;
20982;SDS011;10650;51.528;6.748;2022-09-24T06:14:07;25.50;;;19.70;;
20982;SDS011;10650;51.528;6.748;2022-09-24T06:16:36;24.85;;;18.90;;
20982;SDS011;10650;51.528;6.748;2022-09-24T06:19:04;27.27;;;21.75;;
20982;SDS011;10650;51.528;6.748;2022-09-24T06:21:31;27.27;;;19.83;;
20982;SDS011;10650;51.528;6.748;2022-09-24T06:23:59;24.02;;;19.55;;
20982;SDS011;10650;51.528;6.748;2022-09-24T06:26:29;26.23;;;20.15;;
20982;SDS011;10650;51.528;6.748;2022-09-24T06:28:58;29.30;;;21.38;;
20982;SDS011;10650;51.528;6.748;2022-09-24T06:31:30;30.83;;;22.17;;
20982;SDS011;10650;51.528;6.748;2022-09-24T06:33:59;25.83;;;20.67;;
20982;SDS011;10650;51.528;6.748;2022-09-24T06:36:27;27.75;;;19.85;;
20982;SDS011;10650;51.528;6.748;2022-09-24T06:38:55;30.35;;;21.40;;
20982;SDS011;10650;51.528;6.748;2022-09-24T06:41:23;29.35;;;21.15;;
20982;SDS011;10650;51.528;6.748;2022-09-24T06:43:53;28.92;;;20.42;;
20982;SDS011;10650;51.528;6.748;2022-09-24T06:46:21;27.50;;;20.17;;
20982;SDS011;10650;51.528;6.748;2022-09-24T06:48:51;28.73;;;20.23;;
20982;SDS011;10650;51.528;6.748;2022-09-24T06:51:19;26.33;;;19.77;;
20982;SDS011;10650;51.528;6.748;2022-09-24T06:53:49;23.52;;;18.67;;
20982;SDS011;10650;51.528;6.748;2022-09-24T06:56:17;21.20;;;16.88;;
20982;SDS011;10650;51.528;6.748;2022-09-24T06:58:45;22.10;;;18.52;;
20982;SDS011;10650;51.528;6.748;2022-09-24T07:01:14;25.33;;;19.52;;
20982;SDS011;10650;51.528;6.748;2022-09-24T07:03:41;26.80;;;20.13;;
20982;SDS011;10650;51.528;6.748;2022-09-24T07:06:09;22.98;;;19.00;;
20982;SDS011;10650;51.528;6.748;2022-09-24T07:08:37;23.85;;;19.45;;
20982;SDS011;10650;51.528;6.748;2022-09-24T07:11:05;28.45;;;20.63;;
20982;SDS011;10650;51.528;6.748;2022-09-24T07:13:32;27.58;;;18.95;;
20982;SDS011;10650;51.528;6.748;2022-09-24T07:16:00;29.98;;;21.90;;
20982;SDS011;10650;51.528;6.748;2022-09-24T07:18:30;23.42;;;20.08;;
20982;SDS011;10650;51.528;6.748;2022-09-24T07:20:57;24.92;;;19.55;;
20982;SDS011;10650;51.528;6.748;2022-09-24T07:23:25;24.67;;;19.02;;
20982;SDS011;10650;51.528;6.748;2022-09-24T07:25:54;25.10;;;19.00;;
20982;SDS011;10650;51.528;6.748;2022-09-24T07:28:22;23.33;;;19.25;;
20982;SDS011;10650;51.528;6.748;2022-09-24T07:30:54;25.52;;;20.25;;
20982;SDS011;10650;51.528;6.748;2022-09-24T07:33:22;25.27;;;19.95;;
20982;SDS011;10650;51.528;6.748;2022-09-24T07:35:52;32.35;;;24.48;;
20982;SDS011;10650;51.528;6.748;2022-09-24T07:38:19;24.52;;;19.67;;
20982;SDS011;10650;51.528;6.748;2022-09-24T07:40:47;29.60;;;20.77;;
20982;SDS011;10650;51.528;6.748;2022-09-24T07:43:15;26.70;;;21.08;;
20982;SDS011;10650;51.528;6.748;2022-09-24T07:45:43;25.45;;;19.63;;
20982;SDS011;10650;51.528;6.748;2022-09-24T07:48:11;28.45;;;20.33;;
20982;SDS011;10650;51.528;6.748;2022-09-24T07:50:41;28.77;;;22.63;;
20982;SDS011;10650;51.528;6.748;2022-09-24T07:53:10;26.65;;;20.85;;
20982;SDS011;10650;51.528;6.748;2022-09-24T07:55:39;30.85;;;22.35;;
20982;SDS011;10650;51.528;6.748;2022-09-24T07:58:07;27.48;;;20.40;;
20982;SDS011;10650;51.528;6.748;2022-09-24T08:00:38;25.57;;;20.07;;
20982;SDS011;10650;51.528;6.748;2022-09-24T08:03:06;25.10;;;19.30;;
20982;SDS011;10650;51.528;6.748;2022-09-24T08:05:34;27.02;;;20.45;;
20982;SDS011;10650;51.528;6.748;2022-09-24T08:08:02;27.30;;;19.52;;
20982;SDS011;10650;51.528;6.748;2022-09-24T08:10:31;27.58;;;19.98;;
20982;SDS011;10650;51.528;6.748;2022-09-24T08:13:00;27.73;;;20.27;;
20982;SDS011;10650;51.528;6.748;2022-09-24T08:15:28;25.27;;;20.23;;
20982;SDS011;10650;51.528;6.748;2022-09-24T08:18:17;27.50;;;20.00;;
20982;SDS011;10650;51.528;6.748;2022-09-24T08:20:44;24.95;;;18.83;;
20982;SDS011;10650;51.528;6.748;2022-09-24T08:23:12;24.35;;;19.85;;
20982;SDS011;10650;51.528;6.748;2022-09-24T08:25:41;24.98;;;19.80;;
20982;SDS011;10650;51.528;6.748;2022-09-24T08:28:09;25.13;;;19.65;;
20982;SDS011;10650;51.528;6.748;2022-09-24T08:30:37;25.05;;;19.30;;
20982;SDS011;10650;51.528;6.748;2022-09-24T08:33:06;25.15;;;19.38;;
20982;SDS011;10650;51.528;6.748;2022-09-24T08:35:34;24.33;;;18.02;;
20982;SDS011;10650;51.528;6.748;2022-09-24T08:38:02;19.15;;;16.63;;
20982;SDS011;10650;51.528;6.748;2022-09-24T08:40:30;18.63;;;15.10;;
20982;SDS011;10650;51.528;6.748;2022-09-24T08:43:05;15.63;;;13.73;;
20982;SDS011;10650;51.528;6.748;2022-09-24T08:45:44;15.02;;;13.30;;
20982;SDS011;10650;51.528;6.748;2022-09-24T08:48:33;17.45;;;13.38;;
20982;SDS011;10650;51.528;6.748;2022-09-24T08:51:04;16.75;;;14.02;;
20982;SDS011;10650;51.528;6.748;2022-09-24T08:53:40;16.23;;;14.05;;
20982;SDS011;10650;51.528;6.748;2022-09-24T08:56:14;17.95;;;14.10;;
20982;SDS011;10650;51.528;6.748;2022-09-24T08:58:47;15.05;;;13.45;;
20982;SDS011;10650;51.528;6.748;2022-09-24T09:01:21;14.25;;;12.73;;
20982;SDS011;10650;51.528;6.748;2022-09-24T09:03:59;14.50;;;12.90;;
20982;SDS011;10650;51.528;6.748;2022-09-24T09:06:40;13.70;;;12.20;;
20982;SDS011;10650;51.528;6.748;2022-09-24T09:09:17;14.18;;;12.65;;
20982;SDS011;10650;51.528;6.748;2022-09-24T09:11:49;13.88;;;12.23;;
20982;SDS011;10650;51.528;6.748;2022-09-24T09:14:20;15.02;;;12.15;;
20982;SDS011;10650;51.528;6.748;2022-09-24T09:16:57;14.05;;;11.77;;
20982;SDS011;10650;51.528;6.748;2022-09-24T09:19:29;11.38;;;10.20;;
20982;SDS011;10650;51.528;6.748;2022-09-24T09:22:01;11.60;;;9.68;;
20982;SDS011;10650;51.528;6.748;2022-09-24T09:24:34;10.00;;;8.98;;
20982;SDS011;10650;51.528;6.748;2022-09-24T09:27:09;9.85;;;8.80;;
20982;SDS011;10650;51.528;6.748;2022-09-24T09:29:41;10.70;;;8.75;;
20982;SDS011;10650;51.528;6.748;2022-09-24T09:32:12;10.70;;;8.95;;
20982;SDS011;10650;51.528;6.748;2022-09-24T09:34:54;11.63;;;10.27;;
20982;SDS011;10650;51.528;6.748;2022-09-24T09:37:31;10.57;;;9.48;;
20982;SDS011;10650;51.528;6.748;2022-09-24T09:40:13;11.10;;;9.85;;
20982;SDS011;10650;51.528;6.748;2022-09-24T09:42:58;11.90;;;10.63;;
20982;SDS011;10650;51.528;6.748;2022-09-24T09:45:30;13.10;;;11.00;;
20982;SDS011;10650;51.528;6.748;2022-09-24T09:48:03;12.40;;;10.30;;
20982;SDS011;10650;51.528;6.748;2022-09-24T09:50:33;13.55;;;10.52;;
20982;SDS011;10650;51.528;6.748;2022-09-24T09:53:16;11.70;;;10.48;;
20982;SDS011;10650;51.528;6.748;2022-09-24T09:55:49;13.07;;;11.07;;
20982;SDS011;10650;51.528;6.748;2022-09-24T09:58:20;11.35;;;10.15;;
20982;SDS011;10650;51.528;6.748;2022-09-24T10:00:51;11.40;;;9.68;;
20982;SDS011;10650;51.528;6.748;2022-09-24T10:03:30;10.65;;;9.48;;
20982;SDS011;10650;51.528;6.748;2022-09-24T10:05:59;10.20;;;8.00;;
20982;SDS011;10650;51.528;6.748;2022-09-24T10:08:29;9.75;;;8.85;;
20982;SDS011;10650;51.528;6.748;2022-09-24T10:10:58;11.27;;;9.85;;
20982;SDS011;10650;51.528;6.748;2022-09-24T10:13:28;10.40;;;8.48;;
20982;SDS011;10650;51.528;6.748;2022-09-24T10:15:59;9.23;;;8.32;;
20982;SDS011;10650;51.528;6.748;2022-09-24T10:18:30;9.18;;;8.20;;
20982;SDS011;10650;51.528;6.748;2022-09-24T10:23:37;9.00;;;8.10;;
20982;SDS011;10650;51.528;6.748;2022-09-24T10:26:07;9.48;;;8.18;;
20982;SDS011;10650;51.528;6.748;2022-09-24T10:28:38;10.05;;;8.50;;
20982;SDS011;10650;51.528;6.748;2022-09-24T10:31:30;10.32;;;8.68;;
20982;SDS011;10650;51.528;6.748;2022-09-24T10:34:01;8.60;;;7.80;;
20982;SDS011;10650;51.528;6.748;2022-09-24T10:36:48;9.90;;;7.80;;
20982;SDS011;10650;51.528;6.748;2022-09-24T10:39:16;8.57;;;7.68;;
20982;SDS011;10650;51.528;6.748;2022-09-24T10:41:44;8.25;;;7.45;;
20982;SDS011;10650;51.528;6.748;2022-09-24T10:44:13;8.80;;;6.95;;
20982;SDS011;10650;51.528;6.748;2022-09-24T10:46:46;7.60;;;6.82;;
20982;SDS011;10650;51.528;6.748;2022-09-24T10:49:27;8.23;;;7.43;;
20982;SDS011;10650;51.528;6.748;2022-09-24T10:54:42;7.80;;;7.00;;
20982;SDS011;10650;51.528;6.748;2022-09-24T10:57:23;7.68;;;6.97;;
20982;SDS011;10650;51.528;6.748;2022-09-24T11:00:06;7.85;;;7.07;;
20982;SDS011;10650;51.528;6.748;2022-09-24T11:02:50;7.18;;;6.55;;
20982;SDS011;10650;51.528;6.748;2022-09-24T11:05:32;7.50;;;6.80;;
20982;SDS011;10650;51.528;6.748;2022-09-24T11:08:06;8.10;;;7.28;;
20982;SDS011;10650;51.528;6.748;2022-09-24T11:13:40;7.25;;;6.50;;
20982;SDS011;10650;51.528;6.748;2022-09-24T11:16:24;8.32;;;7.40;;
20982;SDS011;10650;51.528;6.748;2022-09-24T11:19:06;8.50;;;7.68;;
20982;SDS011;10650;51.528;6.748;2022-09-24T11:21:51;10.02;;;8.55;;
20982;SDS011;10650;51.528;6.748;2022-09-24T11:24:35;9.73;;;8.70;;
20982;SDS011;10650;51.528;6.748;2022-09-24T11:27:23;8.65;;;7.75;;
20982;SDS011;10650;51.528;6.748;2022-09-24T11:30:07;9.40;;;8.40;;
20982;SDS011;10650;51.528;6.748;2022-09-24T11:32:41;9.90;;;8.60;;
20982;SDS011;10650;51.528;6.748;2022-09-24T11:35:31;10.48;;;8.32;;
20982;SDS011;10650;51.528;6.748;2022-09-24T11:38:12;10.82;;;8.68;;
20982;SDS011;10650;51.528;6.748;2022-09-24T11:46:35;9.82;;;8.50;;
20982;SDS011;10650;51.528;6.748;2022-09-24T11:49:17;10.00;;;8.95;;
20982;SDS011;10650;51.528;6.748;2022-09-24T11:52:02;8.70;;;7.78;;
20982;SDS011;10650;51.528;6.748;2022-09-24T11:54:37;9.27;;;8.38;;
20982;SDS011;10650;51.528;6.748;2022-09-24T11:57:10;10.88;;;8.70;;
20982;SDS011;10650;51.528;6.748;2022-09-24T12:02:15;8.73;;;7.93;;
20982;SDS011;10650;51.528;6.748;2022-09-24T12:04:52;8.55;;;7.70;;
20982;SDS011;10650;51.528;6.748;2022-09-24T12:07:28;12.27;;;8.85;;
20982;SDS011;10650;51.528;6.748;2022-09-24T12:10:01;10.23;;;9.00;;
20982;SDS011;10650;51.528;6.748;2022-09-24T12:12:34;10.45;;;8.77;;
20982;SDS011;10650;51.528;6.748;2022-09-24T12:15:11;9.43;;;8.43;;
20982;SDS011;10650;51.528;6.748;2022-09-24T12:17:44;10.43;;;9.02;;
20982;SDS011;10650;51.528;6.748;2022-09-24T12:20:18;10.50;;;9.50;;
20982;SDS011;10650;51.528;6.748;2022-09-24T12:22:52;10.25;;;8.82;;
20982;SDS011;10650;51.528;6.748;2022-09-24T12:25:25;9.52;;;8.52;;
20982;SDS011;10650;51.528;6.748;2022-09-24T12:27:55;9.10;;;8.18;;
20982;SDS011;10650;51.528;6.748;2022-09-24T12:30:27;10.88;;;9.88;;
20982;SDS011;10650;51.528;6.748;2022-09-24T12:33:20;10.52;;;9.30;;
20982;SDS011;10650;51.528;6.748;2022-09-24T12:36:03;10.52;;;9.10;;
20982;SDS011;10650;51.528;6.748;2022-09-24T12:38:43;9.95;;;8.98;;
20982;SDS011;10650;51.528;6.748;2022-09-24T12:44:02;10.20;;;9.10;;
20982;SDS011;10650;51.528;6.748;2022-09-24T12:46:47;10.68;;;9.30;;
20982;SDS011;10650;51.528;6.748;2022-09-24T12:49:21;11.65;;;10.13;;
20982;SDS011;10650;51.528;6.748;2022-09-24T12:51:56;11.05;;;9.73;;
20982;SDS011;10650;51.528;6.748;2022-09-24T12:54:28;10.25;;;9.25;;
20982;SDS011;10650;51.528;6.748;2022-09-24T12:57:04;10.25;;;9.15;;
20982;SDS011;10650;51.528;6.748;2022-09-24T12:59:33;9.77;;;8.68;;
20982;SDS011;10650;51.528;6.748;2022-09-24T13:02:16;9.85;;;8.95;;
20982;SDS011;10650;51.528;6.748;2022-09-24T13:04:50;10.20;;;8.60;;
20982;SDS011;10650;51.528;6.748;2022-09-24T13:07:31;10.88;;;9.50;;
20982;SDS011;10650;51.528;6.748;2022-09-24T13:10:16;9.85;;;8.85;;
20982;SDS011;10650;51.528;6.748;2022-09-24T13:12:48;12.20;;;10.02;;
20982;SDS011;10650;51.528;6.748;2022-09-24T13:15:21;10.95;;;9.18;;
20982;SDS011;10650;51.528;6.748;2022-09-24T13:20:56;12.25;;;10.55;;
20982;SDS011;10650;51.528;6.748;2022-09-24T13:23:30;10.35;;;9.27;;
20982;SDS011;10650;51.528;6.748;2022-09-24T13:26:02;12.05;;;10.52;;
20982;SDS011;10650;51.528;6.748;2022-09-24T13:28:31;11.27;;;10.07;;
20982;SDS011;10650;51.528;6.748;2022-09-24T13:31:13;10.43;;;9.43;;
20982;SDS011;10650;51.528;6.748;2022-09-24T13:33:46;10.73;;;9.65;;
20982;SDS011;10650;51.528;6.748;2022-09-24T13:36:17;13.32;;;9.57;;
20982;SDS011;10650;51.528;6.748;2022-09-24T13:38:54;11.07;;;9.35;;
20982;SDS011;10650;51.528;6.748;2022-09-24T13:41:28;9.48;;;8.52;;
20982;SDS011;10650;51.528;6.748;2022-09-24T13:44:10;10.98;;;9.40;;
20982;SDS011;10650;51.528;6.748;2022-09-24T13:46:43;11.77;;;10.57;;
20982;SDS011;10650;51.528;6.748;2022-09-24T13:49:14;10.45;;;9.35;;
20982;SDS011;10650;51.528;6.748;2022-09-24T13:51:47;11.90;;;10.57;;
20982;SDS011;10650;51.528;6.748;2022-09-24T13:54:23;10.77;;;9.77;;
20982;SDS011;10650;51.528;6.748;2022-09-24T13:57:10;10.73;;;9.65;;
20982;SDS011;10650;51.528;6.748;2022-09-24T14:02:21;11.00;;;9.95;;
20982;SDS011;10650;51.528;6.748;2022-09-24T14:04:54;11.32;;;10.23;;
20982;SDS011;10650;51.528;6.748;2022-09-24T14:07:24;12.70;;;10.77;;
20982;SDS011;10650;51.528;6.748;2022-09-24T14:10:00;11.05;;;9.95;;
20982;SDS011;10650;51.528;6.748;2022-09-24T14:12:31;11.90;;;10.48;;
20982;SDS011;10650;51.528;6.748;2022-09-24T14:14:59;11.50;;;10.27;;
20982;SDS011;10650;51.528;6.748;2022-09-24T14:17:29;11.57;;;10.38;;
20982;SDS011;10650;51.528;6.748;2022-09-24T14:19:57;11.55;;;10.13;;
20982;SDS011;10650;51.528;6.748;2022-09-24T14:22:26;12.48;;;11.02;;
20982;SDS011;10650;51.528;6.748;2022-09-24T14:25:01;12.43;;;9.88;;
20982;SDS011;10650;51.528;6.748;2022-09-24T14:27:34;11.10;;;10.00;;
20982;SDS011;10650;51.528;6.748;2022-09-24T14:30:14;11.43;;;10.23;;
20982;SDS011;10650;51.528;6.748;2022-09-24T14:32:48;12.90;;;11.55;;
20982;SDS011;10650;51.528;6.748;2022-09-24T14:35:19;13.20;;;12.00;;
20982;SDS011;10650;51.528;6.748;2022-09-24T14:37:56;12.32;;;11.02;;
20982;SDS011;10650;51.528;6.748;2022-09-24T14:40:29;11.95;;;10.82;;
20982;SDS011;10650;51.528;6.748;2022-09-24T14:43:13;12.32;;;11.10;;
20982;SDS011;10650;51.528;6.748;2022-09-24T14:45:44;12.25;;;10.98;;
20982;SDS011;10650;51.528;6.748;2022-09-24T14:48:16;13.00;;;11.73;;
20982;SDS011;10650;51.528;6.748;2022-09-24T14:50:46;13.13;;;11.77;;
20982;SDS011;10650;51.528;6.748;2022-09-24T14:53:18;12.45;;;11.25;;
20982;SDS011;10650;51.528;6.748;2022-09-24T14:55:49;12.10;;;10.88;;
20982;SDS011;10650;51.528;6.748;2022-09-24T14:58:25;13.15;;;11.85;;
20982;SDS011;10650;51.528;6.748;2022-09-24T15:01:00;13.43;;;12.00;;
20982;SDS011;10650;51.528;6.748;2022-09-24T15:03:31;13.80;;;12.40;;
20982;SDS011;10650;51.528;6.748;2022-09-24T15:06:06;14.43;;;13.05;;
20982;SDS011;10650;51.528;6.748;2022-09-24T15:08:46;16.48;;;14.80;;
20982;SDS011;10650;51.528;6.748;2022-09-24T15:11:19;14.93;;;13.30;;
20982;SDS011;10650;51.528;6.748;2022-09-24T15:13:55;17.42;;;15.57;;
20982;SDS011;10650;51.528;6.748;2022-09-24T15:16:27;14.95;;;13.25;;
20982;SDS011;10650;51.528;6.748;2022-09-24T15:18:58;19.10;;;15.75;;
20982;SDS011;10650;51.528;6.748;2022-09-24T15:21:39;23.55;;;21.10;;
20982;SDS011;10650;51.528;6.748;2022-09-24T15:24:07;26.55;;;23.65;;
20982;SDS011;10650;51.528;6.748;2022-09-24T15:26:35;19.08;;;16.85;;
20982;SDS011;10650;51.528;6.748;2022-09-24T15:29:07;26.25;;;23.42;;
20982;SDS011;10650;51.528;6.748;2022-09-24T15:31:41;17.92;;;15.90;;